sensor_id;sensor_type;location;lat;lon;timestamp;P1;durP1;ratioP1;P2;durP2;ratioP2
21274;SDS011;36472;52.170;20.884;2023-07-22T00:00:12;6.97;;;5.82;;
21274;SDS011;36472;52.170;20.884;2023-07-22T00:03:04;6.85;;;6.15;;
21274;SDS011;36472;52.170;20.884;2023-07-22T00:05:33;6.07;;;5.55;;
21274;SDS011;36472;52.170;20.884;2023-07-22T00:08:03;7.05;;;6.13;;
21274;SDS011;36472;52.170;20.884;2023-07-22T00:10:32;6.53;;;5.93;;
21274;SDS011;36472;52.170;20.884;2023-07-22T00:13:01;6.85;;;5.80;;
21274;SDS011;36472;52.170;20.884;2023-07-22T00:15:31;6.78;;;6.10;;
21274;SDS011;36472;52.170;20.884;2023-07-22T00:18:00;8.00;;;6.28;;
21274;SDS011;36472;52.170;20.884;2023-07-22T00:20:30;7.05;;;6.03;;
21274;SDS011;36472;52.170;20.884;2023-07-22T00:22:58;6.18;;;5.57;;
21274;SDS011;36472;52.170;20.884;2023-07-22T00:25:27;6.68;;;6.13;;
21274;SDS011;36472;52.170;20.884;2023-07-22T00:27:56;6.50;;;6.00;;
21274;SDS011;36472;52.170;20.884;2023-07-22T00:30:25;6.28;;;5.75;;
21274;SDS011;36472;52.170;20.884;2023-07-22T00:32:56;6.72;;;5.93;;
21274;SDS011;36472;52.170;20.884;2023-07-22T00:35:25;7.00;;;5.35;;
21274;SDS011;36472;52.170;20.884;2023-07-22T00:37:54;6.55;;;5.90;;
21274;SDS011;36472;52.170;20.884;2023-07-22T00:40:23;7.47;;;6.25;;
21274;SDS011;36472;52.170;20.884;2023-07-22T00:42:52;7.55;;;6.85;;
21274;SDS011;36472;52.170;20.884;2023-07-22T00:45:21;6.80;;;6.10;;
21274;SDS011;36472;52.170;20.884;2023-07-22T00:47:50;6.57;;;5.97;;
21274;SDS011;36472;52.170;20.884;2023-07-22T00:50:22;6.63;;;6.05;;
21274;SDS011;36472;52.170;20.884;2023-07-22T00:52:53;6.82;;;6.13;;
21274;SDS011;36472;52.170;20.884;2023-07-22T00:55:22;6.75;;;6.00;;
21274;SDS011;36472;52.170;20.884;2023-07-22T00:57:51;5.97;;;5.43;;
21274;SDS011;36472;52.170;20.884;2023-07-22T01:00:20;6.68;;;5.97;;
21274;SDS011;36472;52.170;20.884;2023-07-22T01:02:49;6.93;;;6.22;;
21274;SDS011;36472;52.170;20.884;2023-07-22T01:05:18;6.93;;;6.32;;
21274;SDS011;36472;52.170;20.884;2023-07-22T01:07:49;6.88;;;6.28;;
21274;SDS011;36472;52.170;20.884;2023-07-22T01:10:18;6.43;;;5.93;;
21274;SDS011;36472;52.170;20.884;2023-07-22T01:12:48;6.55;;;5.95;;
21274;SDS011;36472;52.170;20.884;2023-07-22T01:15:17;6.60;;;6.00;;
21274;SDS011;36472;52.170;20.884;2023-07-22T01:17:46;6.55;;;5.93;;
21274;SDS011;36472;52.170;20.884;2023-07-22T01:20:16;6.90;;;6.28;;
21274;SDS011;36472;52.170;20.884;2023-07-22T01:22:50;6.85;;;6.15;;
21274;SDS011;36472;52.170;20.884;2023-07-22T01:25:20;8.18;;;7.18;;
21274;SDS011;36472;52.170;20.884;2023-07-22T01:27:51;7.72;;;6.80;;
21274;SDS011;36472;52.170;20.884;2023-07-22T01:30:20;7.10;;;6.40;;
21274;SDS011;36472;52.170;20.884;2023-07-22T01:32:49;6.97;;;6.32;;
21274;SDS011;36472;52.170;20.884;2023-07-22T01:35:18;8.85;;;6.82;;
21274;SDS011;36472;52.170;20.884;2023-07-22T01:37:47;7.80;;;6.53;;
21274;SDS011;36472;52.170;20.884;2023-07-22T01:40:18;8.18;;;6.55;;
21274;SDS011;36472;52.170;20.884;2023-07-22T01:42:47;7.30;;;6.47;;
21274;SDS011;36472;52.170;20.884;2023-07-22T01:45:16;8.02;;;6.85;;
21274;SDS011;36472;52.170;20.884;2023-07-22T01:47:45;7.70;;;6.90;;
21274;SDS011;36472;52.170;20.884;2023-07-22T01:50:15;7.95;;;7.13;;
21274;SDS011;36472;52.170;20.884;2023-07-22T01:52:45;8.23;;;7.38;;
21274;SDS011;36472;52.170;20.884;2023-07-22T01:55:15;8.68;;;7.78;;
21274;SDS011;36472;52.170;20.884;2023-07-22T01:57:45;8.48;;;7.18;;
21274;SDS011;36472;52.170;20.884;2023-07-22T02:00:14;8.07;;;7.28;;
21274;SDS011;36472;52.170;20.884;2023-07-22T02:02:44;7.80;;;7.10;;
21274;SDS011;36472;52.170;20.884;2023-07-22T02:05:13;8.40;;;7.60;;
21274;SDS011;36472;52.170;20.884;2023-07-22T02:07:42;9.02;;;7.82;;
21274;SDS011;36472;52.170;20.884;2023-07-22T02:10:11;8.77;;;7.97;;
21274;SDS011;36472;52.170;20.884;2023-07-22T02:12:40;8.95;;;7.45;;
21274;SDS011;36472;52.170;20.884;2023-07-22T02:15:11;7.93;;;7.22;;
21274;SDS011;36472;52.170;20.884;2023-07-22T02:17:39;8.65;;;7.70;;
21274;SDS011;36472;52.170;20.884;2023-07-22T02:20:09;9.20;;;8.30;;
21274;SDS011;36472;52.170;20.884;2023-07-22T02:22:39;9.10;;;8.20;;
21274;SDS011;36472;52.170;20.884;2023-07-22T02:25:08;9.05;;;7.82;;
21274;SDS011;36472;52.170;20.884;2023-07-22T02:27:38;9.43;;;8.63;;
21274;SDS011;36472;52.170;20.884;2023-07-22T02:30:08;9.68;;;8.77;;
21274;SDS011;36472;52.170;20.884;2023-07-22T02:32:39;10.75;;;9.65;;
21274;SDS011;36472;52.170;20.884;2023-07-22T02:35:09;11.88;;;10.68;;
21274;SDS011;36472;52.170;20.884;2023-07-22T02:37:38;11.50;;;9.95;;
21274;SDS011;36472;52.170;20.884;2023-07-22T02:40:07;9.90;;;9.00;;
21274;SDS011;36472;52.170;20.884;2023-07-22T02:42:38;10.25;;;9.25;;
21274;SDS011;36472;52.170;20.884;2023-07-22T02:45:08;11.05;;;9.13;;
21274;SDS011;36472;52.170;20.884;2023-07-22T02:47:39;9.75;;;8.77;;
21274;SDS011;36472;52.170;20.884;2023-07-22T02:50:09;10.85;;;9.77;;
21274;SDS011;36472;52.170;20.884;2023-07-22T02:52:38;9.88;;;8.98;;
21274;SDS011;36472;52.170;20.884;2023-07-22T02:55:09;9.68;;;8.88;;
21274;SDS011;36472;52.170;20.884;2023-07-22T02:57:41;10.45;;;9.45;;
21274;SDS011;36472;52.170;20.884;2023-07-22T03:00:12;10.32;;;9.23;;
21274;SDS011;36472;52.170;20.884;2023-07-22T03:02:47;9.75;;;8.75;;
21274;SDS011;36472;52.170;20.884;2023-07-22T03:05:16;10.57;;;9.10;;
21274;SDS011;36472;52.170;20.884;2023-07-22T03:07:45;11.05;;;9.93;;
21274;SDS011;36472;52.170;20.884;2023-07-22T03:10:14;10.48;;;9.55;;
21274;SDS011;36472;52.170;20.884;2023-07-22T03:17:17;10.60;;;9.48;;
21274;SDS011;36472;52.170;20.884;2023-07-22T03:19:46;10.25;;;9.35;;
21274;SDS011;36472;52.170;20.884;2023-07-22T03:22:16;10.07;;;9.18;;
21274;SDS011;36472;52.170;20.884;2023-07-22T03:24:45;10.68;;;9.57;;
21274;SDS011;36472;52.170;20.884;2023-07-22T03:27:15;12.80;;;10.45;;
21274;SDS011;36472;52.170;20.884;2023-07-22T03:29:44;11.35;;;10.25;;
21274;SDS011;36472;52.170;20.884;2023-07-22T03:32:13;10.68;;;9.68;;
21274;SDS011;36472;52.170;20.884;2023-07-22T03:34:43;10.70;;;9.60;;
21274;SDS011;36472;52.170;20.884;2023-07-22T03:37:12;11.07;;;10.05;;
21274;SDS011;36472;52.170;20.884;2023-07-22T03:39:41;10.88;;;9.60;;
21274;SDS011;36472;52.170;20.884;2023-07-22T03:42:10;10.98;;;9.85;;
21274;SDS011;36472;52.170;20.884;2023-07-22T03:44:39;11.30;;;10.30;;
21274;SDS011;36472;52.170;20.884;2023-07-22T03:47:08;10.60;;;9.60;;
21274;SDS011;36472;52.170;20.884;2023-07-22T03:49:37;12.10;;;10.77;;
21274;SDS011;36472;52.170;20.884;2023-07-22T03:52:08;12.00;;;10.85;;
21274;SDS011;36472;52.170;20.884;2023-07-22T03:54:41;10.63;;;9.63;;
21274;SDS011;36472;52.170;20.884;2023-07-22T03:57:10;10.45;;;9.45;;
21274;SDS011;36472;52.170;20.884;2023-07-22T03:59:39;9.98;;;9.02;;
21274;SDS011;36472;52.170;20.884;2023-07-22T04:02:08;10.20;;;9.20;;
21274;SDS011;36472;52.170;20.884;2023-07-22T04:04:37;9.50;;;8.70;;
21274;SDS011;36472;52.170;20.884;2023-07-22T04:07:07;10.50;;;9.40;;
21274;SDS011;36472;52.170;20.884;2023-07-22T04:09:36;9.48;;;8.48;;
21274;SDS011;36472;52.170;20.884;2023-07-22T04:12:06;10.43;;;9.43;;
21274;SDS011;36472;52.170;20.884;2023-07-22T04:14:36;11.52;;;9.27;;
21274;SDS011;36472;52.170;20.884;2023-07-22T04:17:06;9.85;;;8.95;;
21274;SDS011;36472;52.170;20.884;2023-07-22T04:19:35;8.93;;;8.05;;
21274;SDS011;36472;52.170;20.884;2023-07-22T04:22:04;8.57;;;7.88;;
21274;SDS011;36472;52.170;20.884;2023-07-22T04:24:35;8.95;;;8.05;;
21274;SDS011;36472;52.170;20.884;2023-07-22T04:27:05;8.43;;;7.53;;
21274;SDS011;36472;52.170;20.884;2023-07-22T04:29:34;8.85;;;7.95;;
21274;SDS011;36472;52.170;20.884;2023-07-22T04:32:06;7.97;;;7.28;;
21274;SDS011;36472;52.170;20.884;2023-07-22T04:34:36;7.95;;;7.25;;
21274;SDS011;36472;52.170;20.884;2023-07-22T04:37:05;8.20;;;7.32;;
21274;SDS011;36472;52.170;20.884;2023-07-22T04:39:36;7.55;;;6.88;;
21274;SDS011;36472;52.170;20.884;2023-07-22T04:42:05;7.70;;;7.00;;
21274;SDS011;36472;52.170;20.884;2023-07-22T04:44:34;7.95;;;6.97;;
21274;SDS011;36472;52.170;20.884;2023-07-22T04:47:04;7.63;;;6.93;;
21274;SDS011;36472;52.170;20.884;2023-07-22T04:49:33;7.80;;;7.00;;
21274;SDS011;36472;52.170;20.884;2023-07-22T04:52:02;7.13;;;6.53;;
21274;SDS011;36472;52.170;20.884;2023-07-22T04:54:31;8.02;;;7.22;;
21274;SDS011;36472;52.170;20.884;2023-07-22T04:57:02;7.90;;;7.15;;
21274;SDS011;36472;52.170;20.884;2023-07-22T04:59:31;7.88;;;7.13;;
21274;SDS011;36472;52.170;20.884;2023-07-22T05:02:00;8.15;;;7.35;;
21274;SDS011;36472;52.170;20.884;2023-07-22T05:04:29;7.93;;;7.13;;
21274;SDS011;36472;52.170;20.884;2023-07-22T05:06:58;7.70;;;7.00;;
21274;SDS011;36472;52.170;20.884;2023-07-22T05:09:27;7.40;;;6.65;;
21274;SDS011;36472;52.170;20.884;2023-07-22T05:11:56;9.57;;;7.38;;
21274;SDS011;36472;52.170;20.884;2023-07-22T05:14:27;8.57;;;7.50;;
21274;SDS011;36472;52.170;20.884;2023-07-22T05:16:56;8.73;;;7.80;;
21274;SDS011;36472;52.170;20.884;2023-07-22T05:19:24;9.10;;;7.55;;
21274;SDS011;36472;52.170;20.884;2023-07-22T05:21:53;9.95;;;7.35;;
21274;SDS011;36472;52.170;20.884;2023-07-22T05:24:22;8.95;;;8.05;;
21274;SDS011;36472;52.170;20.884;2023-07-22T05:26:51;8.30;;;7.50;;
21274;SDS011;36472;52.170;20.884;2023-07-22T05:29:35;8.93;;;7.28;;
21274;SDS011;36472;52.170;20.884;2023-07-22T05:32:05;9.02;;;8.13;;
21274;SDS011;36472;52.170;20.884;2023-07-22T05:34:53;10.38;;;8.73;;
21274;SDS011;36472;52.170;20.884;2023-07-22T05:37:22;12.55;;;8.70;;
21274;SDS011;36472;52.170;20.884;2023-07-22T05:39:51;10.65;;;9.40;;
21274;SDS011;36472;52.170;20.884;2023-07-22T05:42:20;12.20;;;9.25;;
21274;SDS011;36472;52.170;20.884;2023-07-22T05:44:50;9.80;;;8.80;;
21274;SDS011;36472;52.170;20.884;2023-07-22T05:47:22;9.63;;;8.63;;
21274;SDS011;36472;52.170;20.884;2023-07-22T05:49:50;9.00;;;8.10;;
21274;SDS011;36472;52.170;20.884;2023-07-22T05:52:20;9.93;;;8.93;;
21274;SDS011;36472;52.170;20.884;2023-07-22T05:54:48;10.55;;;8.43;;
21274;SDS011;36472;52.170;20.884;2023-07-22T05:57:18;11.43;;;8.60;;
21274;SDS011;36472;52.170;20.884;2023-07-22T05:59:46;10.63;;;8.80;;
21274;SDS011;36472;52.170;20.884;2023-07-22T06:02:39;8.57;;;7.78;;
21274;SDS011;36472;52.170;20.884;2023-07-22T06:05:08;9.20;;;8.32;;
21274;SDS011;36472;52.170;20.884;2023-07-22T06:07:37;11.23;;;8.70;;
21274;SDS011;36472;52.170;20.884;2023-07-22T06:10:07;9.13;;;8.18;;
21274;SDS011;36472;52.170;20.884;2023-07-22T06:12:37;10.93;;;8.23;;
21274;SDS011;36472;52.170;20.884;2023-07-22T06:15:07;10.35;;;8.50;;
21274;SDS011;36472;52.170;20.884;2023-07-22T06:17:37;10.50;;;7.90;;
21274;SDS011;36472;52.170;20.884;2023-07-22T06:20:08;8.10;;;7.30;;
21274;SDS011;36472;52.170;20.884;2023-07-22T06:22:38;8.27;;;7.47;;
21274;SDS011;36472;52.170;20.884;2023-07-22T06:25:08;8.68;;;7.47;;
21274;SDS011;36472;52.170;20.884;2023-07-22T06:27:37;7.78;;;6.97;;
21274;SDS011;36472;52.170;20.884;2023-07-22T06:30:06;7.10;;;6.50;;
21274;SDS011;36472;52.170;20.884;2023-07-22T06:32:37;7.28;;;6.60;;
21274;SDS011;36472;52.170;20.884;2023-07-22T06:35:08;6.68;;;5.97;;
21274;SDS011;36472;52.170;20.884;2023-07-22T06:37:37;6.82;;;6.15;;
21274;SDS011;36472;52.170;20.884;2023-07-22T06:40:07;6.80;;;5.45;;
21274;SDS011;36472;52.170;20.884;2023-07-22T06:42:37;6.30;;;4.93;;
21274;SDS011;36472;52.170;20.884;2023-07-22T06:45:06;4.55;;;4.13;;
21274;SDS011;36472;52.170;20.884;2023-07-22T06:47:36;4.55;;;3.90;;
21274;SDS011;36472;52.170;20.884;2023-07-22T06:50:07;4.85;;;4.00;;
21274;SDS011;36472;52.170;20.884;2023-07-22T06:52:36;4.20;;;3.53;;
21274;SDS011;36472;52.170;20.884;2023-07-22T06:55:05;3.97;;;3.65;;
21274;SDS011;36472;52.170;20.884;2023-07-22T06:57:36;3.92;;;3.53;;
21274;SDS011;36472;52.170;20.884;2023-07-22T07:00:06;5.10;;;3.58;;
21274;SDS011;36472;52.170;20.884;2023-07-22T07:02:37;3.78;;;3.17;;
21274;SDS011;36472;52.170;20.884;2023-07-22T07:05:07;4.95;;;3.50;;
21274;SDS011;36472;52.170;20.884;2023-07-22T07:07:36;5.40;;;3.25;;
21274;SDS011;36472;52.170;20.884;2023-07-22T07:10:06;3.28;;;2.97;;
21274;SDS011;36472;52.170;20.884;2023-07-22T07:12:35;3.72;;;2.83;;
21274;SDS011;36472;52.170;20.884;2023-07-22T07:15:05;4.03;;;2.80;;
21274;SDS011;36472;52.170;20.884;2023-07-22T07:17:35;4.50;;;2.83;;
21274;SDS011;36472;52.170;20.884;2023-07-22T07:20:05;4.57;;;2.70;;
21274;SDS011;36472;52.170;20.884;2023-07-22T07:22:37;3.20;;;2.90;;
21274;SDS011;36472;52.170;20.884;2023-07-22T07:25:06;3.28;;;2.72;;
21274;SDS011;36472;52.170;20.884;2023-07-22T07:27:35;5.03;;;3.08;;
21274;SDS011;36472;52.170;20.884;2023-07-22T07:30:04;3.88;;;3.40;;
21274;SDS011;36472;52.170;20.884;2023-07-22T07:32:37;3.58;;;2.75;;
21274;SDS011;36472;52.170;20.884;2023-07-22T07:35:07;4.60;;;2.95;;
21274;SDS011;36472;52.170;20.884;2023-07-22T07:37:37;3.63;;;2.78;;
21274;SDS011;36472;52.170;20.884;2023-07-22T07:40:07;4.18;;;2.47;;
21274;SDS011;36472;52.170;20.884;2023-07-22T07:42:37;2.90;;;2.55;;
21274;SDS011;36472;52.170;20.884;2023-07-22T07:45:06;3.78;;;2.30;;
21274;SDS011;36472;52.170;20.884;2023-07-22T07:47:36;5.22;;;2.50;;
21274;SDS011;36472;52.170;20.884;2023-07-22T07:50:08;3.97;;;2.40;;
21274;SDS011;36472;52.170;20.884;2023-07-22T07:52:37;4.93;;;2.70;;
21274;SDS011;36472;52.170;20.884;2023-07-22T07:55:06;3.92;;;2.60;;
21274;SDS011;36472;52.170;20.884;2023-07-22T07:57:36;4.47;;;2.60;;
21274;SDS011;36472;52.170;20.884;2023-07-22T08:00:05;2.30;;;2.08;;
21274;SDS011;36472;52.170;20.884;2023-07-22T08:02:36;2.88;;;2.30;;
21274;SDS011;36472;52.170;20.884;2023-07-22T08:05:05;4.20;;;2.38;;
21274;SDS011;36472;52.170;20.884;2023-07-22T08:07:37;4.28;;;2.22;;
21274;SDS011;36472;52.170;20.884;2023-07-22T08:10:06;2.72;;;2.50;;
21274;SDS011;36472;52.170;20.884;2023-07-22T08:12:37;4.68;;;2.22;;
21274;SDS011;36472;52.170;20.884;2023-07-22T08:15:06;4.97;;;2.38;;
21274;SDS011;36472;52.170;20.884;2023-07-22T08:17:36;3.08;;;2.30;;
21274;SDS011;36472;52.170;20.884;2023-07-22T08:20:05;5.30;;;2.60;;
21274;SDS011;36472;52.170;20.884;2023-07-22T08:22:37;4.47;;;2.67;;
21274;SDS011;36472;52.170;20.884;2023-07-22T08:25:06;3.03;;;2.30;;
21274;SDS011;36472;52.170;20.884;2023-07-22T08:27:35;3.83;;;2.58;;
21274;SDS011;36472;52.170;20.884;2023-07-22T08:30:05;3.63;;;2.20;;
21274;SDS011;36472;52.170;20.884;2023-07-22T08:32:35;5.32;;;2.38;;
21274;SDS011;36472;52.170;20.884;2023-07-22T08:35:04;3.50;;;2.28;;
21274;SDS011;36472;52.170;20.884;2023-07-22T08:42:08;4.65;;;2.35;;
21274;SDS011;36472;52.170;20.884;2023-07-22T08:44:39;7.70;;;2.22;;
21274;SDS011;36472;52.170;20.884;2023-07-22T08:47:16;4.63;;;2.35;;
21274;SDS011;36472;52.170;20.884;2023-07-22T08:49:50;9.43;;;2.78;;
21274;SDS011;36472;52.170;20.884;2023-07-22T08:52:26;3.72;;;2.30;;
21274;SDS011;36472;52.170;20.884;2023-07-22T08:54:55;3.08;;;2.10;;
21274;SDS011;36472;52.170;20.884;2023-07-22T08:57:27;4.13;;;2.08;;
21274;SDS011;36472;52.170;20.884;2023-07-22T08:59:58;4.25;;;2.10;;
21274;SDS011;36472;52.170;20.884;2023-07-22T09:02:30;4.78;;;2.33;;
21274;SDS011;36472;52.170;20.884;2023-07-22T09:05:01;6.57;;;2.60;;
21274;SDS011;36472;52.170;20.884;2023-07-22T09:07:30;2.85;;;2.35;;
21274;SDS011;36472;52.170;20.884;2023-07-22T09:09:59;5.18;;;2.47;;
21274;SDS011;36472;52.170;20.884;2023-07-22T09:12:31;2.60;;;2.22;;
21274;SDS011;36472;52.170;20.884;2023-07-22T09:15:07;3.33;;;2.55;;
21274;SDS011;36472;52.170;20.884;2023-07-22T09:17:40;3.67;;;2.38;;
21274;SDS011;36472;52.170;20.884;2023-07-22T09:20:10;4.15;;;2.30;;
21274;SDS011;36472;52.170;20.884;2023-07-22T09:22:43;3.13;;;2.40;;
21274;SDS011;36472;52.170;20.884;2023-07-22T09:25:22;5.63;;;2.55;;
21274;SDS011;36472;52.170;20.884;2023-07-22T09:27:55;3.63;;;2.90;;
21274;SDS011;36472;52.170;20.884;2023-07-22T09:30:28;3.28;;;2.75;;
21274;SDS011;36472;52.170;20.884;2023-07-22T09:32:59;4.40;;;2.40;;
21274;SDS011;36472;52.170;20.884;2023-07-22T09:35:31;3.08;;;2.28;;
21274;SDS011;36472;52.170;20.884;2023-07-22T09:38:13;3.03;;;2.30;;
21274;SDS011;36472;52.170;20.884;2023-07-22T09:40:49;2.42;;;2.10;;
21274;SDS011;36472;52.170;20.884;2023-07-22T09:43:21;2.70;;;1.67;;
21274;SDS011;36472;52.170;20.884;2023-07-22T09:45:51;3.83;;;1.85;;
21274;SDS011;36472;52.170;20.884;2023-07-22T09:48:21;2.70;;;1.77;;
21274;SDS011;36472;52.170;20.884;2023-07-22T09:50:55;3.78;;;2.08;;
21274;SDS011;36472;52.170;20.884;2023-07-22T09:53:25;1.75;;;1.60;;
21274;SDS011;36472;52.170;20.884;2023-07-22T09:55:53;3.50;;;1.50;;
21274;SDS011;36472;52.170;20.884;2023-07-22T09:58:24;3.58;;;1.88;;
21274;SDS011;36472;52.170;20.884;2023-07-22T10:00:58;3.20;;;1.60;;
21274;SDS011;36472;52.170;20.884;2023-07-22T10:03:29;2.17;;;1.50;;
21274;SDS011;36472;52.170;20.884;2023-07-22T10:06:00;3.25;;;1.30;;
21274;SDS011;36472;52.170;20.884;2023-07-22T10:08:34;2.03;;;1.50;;
21274;SDS011;36472;52.170;20.884;2023-07-22T10:11:05;2.65;;;1.42;;
21274;SDS011;36472;52.170;20.884;2023-07-22T10:13:38;1.70;;;1.55;;
21274;SDS011;36472;52.170;20.884;2023-07-22T10:16:08;1.45;;;1.33;;
21274;SDS011;36472;52.170;20.884;2023-07-22T10:18:38;2.50;;;1.55;;
21274;SDS011;36472;52.170;20.884;2023-07-22T10:21:10;3.13;;;1.67;;
21274;SDS011;36472;52.170;20.884;2023-07-22T10:23:40;2.70;;;1.60;;
21274;SDS011;36472;52.170;20.884;2023-07-22T10:26:12;2.13;;;1.70;;
21274;SDS011;36472;52.170;20.884;2023-07-22T10:28:48;4.32;;;1.30;;
21274;SDS011;36472;52.170;20.884;2023-07-22T10:31:18;1.40;;;1.23;;
21274;SDS011;36472;52.170;20.884;2023-07-22T10:33:48;2.67;;;1.40;;
21274;SDS011;36472;52.170;20.884;2023-07-22T10:36:17;2.10;;;1.30;;
21274;SDS011;36472;52.170;20.884;2023-07-22T10:38:54;1.63;;;1.50;;
21274;SDS011;36472;52.170;20.884;2023-07-22T10:41:28;1.48;;;1.20;;
21274;SDS011;36472;52.170;20.884;2023-07-22T10:43:58;1.70;;;1.45;;
21274;SDS011;36472;52.170;20.884;2023-07-22T10:46:31;4.90;;;1.70;;
21274;SDS011;36472;52.170;20.884;2023-07-22T10:49:10;3.67;;;1.50;;
21274;SDS011;36472;52.170;20.884;2023-07-22T10:51:40;2.42;;;1.65;;
21274;SDS011;36472;52.170;20.884;2023-07-22T10:54:12;2.20;;;1.55;;
21274;SDS011;36472;52.170;20.884;2023-07-22T10:56:43;2.20;;;1.42;;
21274;SDS011;36472;52.170;20.884;2023-07-22T15:00:25;3.42;;;1.92;;
21274;SDS011;36472;52.170;20.884;2023-07-22T15:02:54;2.30;;;1.95;;
21274;SDS011;36472;52.170;20.884;2023-07-22T15:05:23;2.40;;;2.20;;
21274;SDS011;36472;52.170;20.884;2023-07-22T15:07:53;2.10;;;1.90;;
21274;SDS011;36472;52.170;20.884;2023-07-22T15:10:22;2.28;;;1.92;;
21274;SDS011;36472;52.170;20.884;2023-07-22T15:12:52;3.30;;;1.80;;
21274;SDS011;36472;52.170;20.884;2023-07-22T15:15:23;2.58;;;2.25;;
21274;SDS011;36472;52.170;20.884;2023-07-22T15:17:53;6.45;;;2.10;;
21274;SDS011;36472;52.170;20.884;2023-07-22T15:20:22;2.60;;;1.80;;
21274;SDS011;36472;52.170;20.884;2023-07-22T15:22:51;3.28;;;2.10;;
21274;SDS011;36472;52.170;20.884;2023-07-22T15:25:21;2.72;;;2.08;;
21274;SDS011;36472;52.170;20.884;2023-07-22T15:27:50;2.30;;;2.10;;
21274;SDS011;36472;52.170;20.884;2023-07-22T15:30:19;3.65;;;2.15;;
21274;SDS011;36472;52.170;20.884;2023-07-22T15:32:49;2.78;;;2.38;;
21274;SDS011;36472;52.170;20.884;2023-07-22T15:35:19;2.72;;;2.00;;
21274;SDS011;36472;52.170;20.884;2023-07-22T15:37:50;3.45;;;1.90;;
21274;SDS011;36472;52.170;20.884;2023-07-22T15:40:21;3.63;;;1.95;;
21274;SDS011;36472;52.170;20.884;2023-07-22T15:42:51;2.17;;;1.85;;
21274;SDS011;36472;52.170;20.884;2023-07-22T15:45:20;3.45;;;2.05;;
21274;SDS011;36472;52.170;20.884;2023-07-22T15:47:51;2.53;;;1.90;;
21274;SDS011;36472;52.170;20.884;2023-07-22T15:50:20;4.13;;;2.30;;
21274;SDS011;36472;52.170;20.884;2023-07-22T15:52:49;5.25;;;2.20;;
21274;SDS011;36472;52.170;20.884;2023-07-22T15:55:18;4.22;;;2.13;;
21274;SDS011;36472;52.170;20.884;2023-07-22T15:57:51;2.08;;;1.88;;
21274;SDS011;36472;52.170;20.884;2023-07-22T16:00:20;4.68;;;2.10;;
21274;SDS011;36472;52.170;20.884;2023-07-22T16:02:49;3.47;;;2.60;;
21274;SDS011;36472;52.170;20.884;2023-07-22T16:05:20;3.10;;;1.80;;
21274;SDS011;36472;52.170;20.884;2023-07-22T16:07:50;5.30;;;2.20;;
21274;SDS011;36472;52.170;20.884;2023-07-22T16:10:20;3.17;;;1.83;;
21274;SDS011;36472;52.170;20.884;2023-07-22T16:12:50;4.22;;;2.20;;
21274;SDS011;36472;52.170;20.884;2023-07-22T16:15:19;2.28;;;2.03;;
21274;SDS011;36472;52.170;20.884;2023-07-22T16:17:48;3.08;;;1.90;;
21274;SDS011;36472;52.170;20.884;2023-07-22T16:20:19;2.20;;;1.90;;
21274;SDS011;36472;52.170;20.884;2023-07-22T16:22:49;2.85;;;1.98;;
21274;SDS011;36472;52.170;20.884;2023-07-22T16:25:18;5.00;;;2.05;;
21274;SDS011;36472;52.170;20.884;2023-07-22T16:27:47;2.97;;;2.10;;
21274;SDS011;36472;52.170;20.884;2023-07-22T16:30:16;2.00;;;1.80;;
21274;SDS011;36472;52.170;20.884;2023-07-22T16:32:45;2.22;;;1.73;;
21274;SDS011;36472;52.170;20.884;2023-07-22T16:35:14;3.53;;;2.10;;
21274;SDS011;36472;52.170;20.884;2023-07-22T16:37:44;3.33;;;2.38;;
21274;SDS011;36472;52.170;20.884;2023-07-22T16:40:13;3.72;;;2.10;;
21274;SDS011;36472;52.170;20.884;2023-07-22T16:42:42;4.70;;;2.70;;
21274;SDS011;36472;52.170;20.884;2023-07-22T16:45:13;2.70;;;2.38;;
21274;SDS011;36472;52.170;20.884;2023-07-22T16:47:42;2.55;;;1.95;;
21274;SDS011;36472;52.170;20.884;2023-07-22T16:50:12;2.30;;;2.10;;
21274;SDS011;36472;52.170;20.884;2023-07-22T16:52:41;2.70;;;2.40;;
21274;SDS011;36472;52.170;20.884;2023-07-22T16:55:11;2.17;;;1.98;;
21274;SDS011;36472;52.170;20.884;2023-07-22T16:57:44;2.40;;;2.20;;
21274;SDS011;36472;52.170;20.884;2023-07-22T17:00:13;3.17;;;2.17;;
21274;SDS011;36472;52.170;20.884;2023-07-22T17:02:43;2.55;;;1.65;;
21274;SDS011;36472;52.170;20.884;2023-07-22T17:05:13;5.78;;;1.92;;
21274;SDS011;36472;52.170;20.884;2023-07-22T17:07:42;2.97;;;1.95;;
21274;SDS011;36472;52.170;20.884;2023-07-22T17:10:14;2.88;;;2.00;;
21274;SDS011;36472;52.170;20.884;2023-07-22T17:12:43;3.10;;;2.10;;
21274;SDS011;36472;52.170;20.884;2023-07-22T17:15:12;2.28;;;1.75;;
21274;SDS011;36472;52.170;20.884;2023-07-22T17:17:42;2.45;;;2.00;;
21274;SDS011;36472;52.170;20.884;2023-07-22T17:20:11;2.03;;;1.80;;
21274;SDS011;36472;52.170;20.884;2023-07-22T17:22:41;3.17;;;2.22;;
21274;SDS011;36472;52.170;20.884;2023-07-22T17:25:10;3.10;;;2.20;;
21274;SDS011;36472;52.170;20.884;2023-07-22T17:27:41;2.08;;;1.88;;
21274;SDS011;36472;52.170;20.884;2023-07-22T17:30:10;2.92;;;1.80;;
21274;SDS011;36472;52.170;20.884;2023-07-22T17:32:40;1.70;;;1.60;;
21274;SDS011;36472;52.170;20.884;2023-07-22T17:35:09;2.95;;;1.80;;
21274;SDS011;36472;52.170;20.884;2023-07-22T17:37:38;2.60;;;1.90;;
21274;SDS011;36472;52.170;20.884;2023-07-22T17:40:07;3.40;;;1.95;;
21274;SDS011;36472;52.170;20.884;2023-07-22T17:42:37;2.55;;;2.00;;
21274;SDS011;36472;52.170;20.884;2023-07-22T17:45:08;2.20;;;2.00;;
21274;SDS011;36472;52.170;20.884;2023-07-22T17:47:37;4.15;;;1.90;;
21274;SDS011;36472;52.170;20.884;2023-07-22T17:50:06;2.40;;;2.00;;
21274;SDS011;36472;52.170;20.884;2023-07-22T17:52:36;2.35;;;1.70;;
21274;SDS011;36472;52.170;20.884;2023-07-22T17:55:05;2.13;;;1.85;;
21274;SDS011;36472;52.170;20.884;2023-07-22T17:57:35;2.35;;;1.90;;
21274;SDS011;36472;52.170;20.884;2023-07-22T18:00:05;2.53;;;1.98;;
21274;SDS011;36472;52.170;20.884;2023-07-22T18:02:37;6.70;;;2.28;;
21274;SDS011;36472;52.170;20.884;2023-07-22T18:05:06;2.33;;;1.80;;
21274;SDS011;36472;52.170;20.884;2023-07-22T18:07:36;3.40;;;2.17;;
21274;SDS011;36472;52.170;20.884;2023-07-22T18:10:06;2.92;;;2.05;;
21274;SDS011;36472;52.170;20.884;2023-07-22T18:12:36;3.80;;;2.17;;
21274;SDS011;36472;52.170;20.884;2023-07-22T18:15:05;3.17;;;2.20;;
21274;SDS011;36472;52.170;20.884;2023-07-22T18:17:36;4.13;;;2.70;;
21274;SDS011;36472;52.170;20.884;2023-07-22T18:20:06;2.20;;;1.98;;
21274;SDS011;36472;52.170;20.884;2023-07-22T18:22:36;2.83;;;2.15;;
21274;SDS011;36472;52.170;20.884;2023-07-22T18:25:05;3.75;;;2.15;;
21274;SDS011;36472;52.170;20.884;2023-07-22T18:27:35;3.03;;;2.47;;
21274;SDS011;36472;52.170;20.884;2023-07-22T18:30:04;2.90;;;2.20;;
21274;SDS011;36472;52.170;20.884;2023-07-22T18:32:36;3.20;;;2.70;;
21274;SDS011;36472;52.170;20.884;2023-07-22T18:35:05;3.97;;;2.55;;
21274;SDS011;36472;52.170;20.884;2023-07-22T18:37:36;5.07;;;2.70;;
21274;SDS011;36472;52.170;20.884;2023-07-22T18:40:06;3.53;;;2.58;;
21274;SDS011;36472;52.170;20.884;2023-07-22T18:42:37;3.92;;;3.03;;
21274;SDS011;36472;52.170;20.884;2023-07-22T18:45:08;5.13;;;3.13;;
21274;SDS011;36472;52.170;20.884;2023-07-22T18:47:39;3.78;;;2.50;;
21274;SDS011;36472;52.170;20.884;2023-07-22T18:50:08;5.97;;;2.58;;
21274;SDS011;36472;52.170;20.884;2023-07-22T18:52:37;3.05;;;2.60;;
21274;SDS011;36472;52.170;20.884;2023-07-22T18:55:06;2.83;;;2.38;;
21274;SDS011;36472;52.170;20.884;2023-07-22T18:57:36;2.75;;;2.30;;
21274;SDS011;36472;52.170;20.884;2023-07-22T19:00:05;3.42;;;2.40;;